Time;durP1;ratioP1;P1;durP2;ratioP2;P2;SDS_P1;SDS_P2;PMS_P1;PMS_P2;Temp;Humidity;BMP_temperature;BMP_pressure;BME280_temperature;BME280_humidity;BME280_pressure;Samples;Min_cycle;Max_cycle;Signal;HPM_P1;HPM_P2
2023/01/12 00:01:11;;;;;;;75.13;9.32;;;10.70;97.40;;;;;;5085037;28;20084;-60
2023/01/12 00:03:37;;;;;;;88.53;9.70;;;10.60;97.40;;;;;;5084731;28;20493;-59
2023/01/12 00:06:06;;;;;;;54.33;9.18;;;10.60;97.40;;;;;;5083713;28;20035;-59
2023/01/12 00:08:33;;;;;;;72.53;10.60;;;10.60;97.40;;;;;;5084896;28;20078;-60
2023/01/12 00:10:58;;;;;;;53.17;8.73;;;10.60;97.40;;;;;;5050237;28;20490;-59
2023/01/12 00:13:24;;;;;;;54.28;9.40;;;10.60;97.50;;;;;;5088853;28;20029;-60
2023/01/12 00:18:33;;;;;;;64.63;9.20;;;10.60;97.60;;;;;;5087682;28;20078;-59
2023/01/12 00:20:59;;;;;;;62.53;9.18;;;10.50;97.50;;;;;;5070696;28;20028;-60
2023/01/12 00:23:28;;;;;;;39.25;7.85;;;10.50;97.50;;;;;;5087094;28;20377;-60
2023/01/12 00:25:53;;;;;;;60.45;8.50;;;10.50;97.50;;;;;;5088631;28;20093;-59
2023/01/12 00:28:19;;;;;;;53.58;8.90;;;10.50;97.50;;;;;;5088583;28;20075;-60
2023/01/12 00:30:44;;;;;;;43.22;7.95;;;10.50;97.60;;;;;;5088488;28;20361;-59
2023/01/12 00:33:10;;;;;;;57.53;8.98;;;10.50;97.60;;;;;;5088583;28;20029;-60
2023/01/12 00:35:35;;;;;;;56.25;9.90;;;10.40;97.60;;;;;;5087252;28;20356;-59
2023/01/12 00:38:02;;;;;;;57.63;9.43;;;10.40;97.70;;;;;;5086967;28;20028;-59
2023/01/12 00:40:28;;;;;;;50.22;9.48;;;10.40;97.70;;;;;;5087117;28;20032;-59
2023/01/12 00:45:37;;;;;;;41.83;8.02;;;10.40;97.70;;;;;;5088219;28;20154;-59
2023/01/12 00:48:03;;;;;;;51.63;9.13;;;10.40;97.70;;;;;;5087065;28;20012;-60
2023/01/12 00:50:29;;;;;;;51.35;8.95;;;10.40;97.70;;;;;;5086786;28;20029;-59
2023/01/12 00:52:54;;;;;;;38.90;8.57;;;10.30;97.60;;;;;;5087149;28;20065;-60
2023/01/12 00:55:20;;;;;;;49.45;8.90;;;10.40;97.70;;;;;;5086822;28;20028;-59
2023/01/12 00:57:45;;;;;;;39.58;8.32;;;10.30;97.70;;;;;;5086873;28;20448;-59
2023/01/12 01:00:11;;;;;;;43.75;7.75;;;10.30;97.70;;;;;;5086842;28;20104;-60
2023/01/12 01:02:37;;;;;;;44.42;8.20;;;10.30;97.60;;;;;;5088026;28;20044;-59
2023/01/12 01:05:02;;;;;;;32.95;8.00;;;10.20;97.60;;;;;;5053109;28;20021;-59
2023/01/12 01:07:28;;;;;;;40.08;7.90;;;10.20;97.60;;;;;;5087937;28;20020;-60
2023/01/12 01:09:53;;;;;;;45.95;7.75;;;10.20;97.60;;;;;;5086751;28;20020;-59
2023/01/12 01:12:19;;;;;;;46.58;8.13;;;10.20;97.50;;;;;;5086434;28;20387;-60
2023/01/12 01:14:46;;;;;;;39.55;7.95;;;10.20;97.50;;;;;;5069896;28;20074;-60
2023/01/12 01:17:11;;;;;;;29.55;7.20;;;10.20;97.50;;;;;;5086331;28;20545;-59
2023/01/12 01:19:37;;;;;;;31.73;7.28;;;10.10;97.50;;;;;;5087766;28;20024;-60
2023/01/12 01:22:02;;;;;;;29.25;7.22;;;10.10;97.40;;;;;;5086969;28;20043;-59
2023/01/12 01:24:28;;;;;;;42.83;7.30;;;10.10;97.40;;;;;;5086380;28;20021;-59
2023/01/12 01:26:53;;;;;;;35.83;7.55;;;10.10;97.40;;;;;;5086462;28;20029;-60
2023/01/12 01:29:19;;;;;;;27.90;7.22;;;10.10;97.40;;;;;;5086074;28;20089;-60
2023/01/12 01:31:46;;;;;;;32.88;7.68;;;10.10;97.40;;;;;;5086222;28;20047;-60
2023/01/12 01:34:12;;;;;;;32.58;7.20;;;10.10;97.50;;;;;;5069851;28;20028;-60
2023/01/12 01:36:37;;;;;;;28.67;7.35;;;10.10;97.50;;;;;;5087408;28;20092;-59
2023/01/12 01:39:04;;;;;;;36.58;7.65;;;10.10;97.50;;;;;;5087181;28;20024;-60
2023/01/12 01:41:30;;;;;;;29.15;7.22;;;10.10;97.40;;;;;;5086030;28;20062;-60
2023/01/12 01:43:57;;;;;;;24.17;7.45;;;10.10;97.40;;;;;;5085936;28;20130;-59
2023/01/12 01:46:53;;;;;;;26.35;5.88;;;10.10;97.30;;;;;;5088880;28;20052;-60
2023/01/12 01:49:27;;;;;;;19.70;5.60;;;9.90;97.10;;;;;;5082322;28;20033;-59
2023/01/12 01:51:55;;;;;;;25.23;6.90;;;10.00;97.20;;;;;;5087066;28;20032;-59
2023/01/12 01:54:20;;;;;;;28.92;6.32;;;10.00;97.20;;;;;;5052500;28;20020;-60
2023/01/12 01:56:46;;;;;;;25.48;6.65;;;10.00;97.30;;;;;;5085389;28;20094;-60
2023/01/12 01:59:14;;;;;;;26.63;6.25;;;10.00;97.50;;;;;;5085809;28;20024;-60
2023/01/12 02:01:40;;;;;;;23.05;5.97;;;10.00;97.50;;;;;;5085367;28;20032;-60
2023/01/12 02:04:05;;;;;;;22.10;6.32;;;10.00;97.40;;;;;;5085616;28;20021;-59
2023/01/12 02:06:31;;;;;;;26.67;7.00;;;9.90;97.20;;;;;;5068837;28;20025;-60
2023/01/12 02:08:59;;;;;;;17.65;5.85;;;9.90;97.10;;;;;;5069640;28;20047;-59
2023/01/12 02:17:15;;;;;;;24.38;6.43;;;9.90;97.10;;;;;;5085677;28;20507;-60
2023/01/12 02:20:03;;;;;;;21.98;5.90;;;9.90;97.30;;;;;;5086676;28;20048;-60
2023/01/12 02:22:48;;;;;;;20.70;5.78;;;9.90;97.60;;;;;;5085216;28;20067;-60
2023/01/12 02:25:51;;;;;;;22.98;6.50;;;9.90;97.30;;;;;;5086428;28;20020;-60
2023/01/12 02:28:31;;;;;;;19.45;5.90;;;9.90;97.30;;;;;;5086142;28;20024;-59
2023/01/12 02:31:20;;;;;;;21.10;6.25;;;9.80;97.10;;;;;;5085077;28;20043;-60
2023/01/12 02:34:12;;;;;;;17.85;5.35;;;9.80;97.00;;;;;;5084161;28;20082;-60
2023/01/12 02:36:45;;;;;;;17.00;5.38;;;9.80;96.90;;;;;;5082665;28;20048;-59
2023/01/12 02:39:37;;;;;;;22.27;5.90;;;9.80;96.80;;;;;;5085027;28;20099;-60
2023/01/12 02:45:00;;;;;;;;;;;9.70;96.80;;;;;;5071869;28;20038;-59
2023/01/12 02:47:43;;;;;;;15.95;5.13;;;9.70;96.90;;;;;;5084703;28;19953;-60
2023/01/12 02:50:10;;;;;;;16.85;4.88;;;9.70;96.90;;;;;;5084618;28;20084;-59
2023/01/12 02:52:35;;;;;;;21.40;5.68;;;9.70;97.00;;;;;;5068200;28;20106;-60
2023/01/12 02:55:01;;;;;;;21.05;5.15;;;9.70;96.90;;;;;;5067793;28;20473;-59
2023/01/12 02:57:27;;;;;;;19.65;4.78;;;9.70;97.00;;;;;;5067983;28;20509;-60
2023/01/12 02:59:52;;;;;;;14.95;5.10;;;9.70;96.90;;;;;;5067559;28;20384;-59
2023/01/12 03:02:19;;;;;;;14.07;4.68;;;9.70;97.10;;;;;;5084315;28;20036;-60
2023/01/12 03:04:45;;;;;;;26.58;5.72;;;9.70;97.20;;;;;;5050938;28;20028;-59
2023/01/12 03:07:21;;;;;;;15.43;5.03;;;9.70;97.10;;;;;;5084286;28;20025;-60
2023/01/12 03:09:49;;;;;;;16.13;5.40;;;9.60;97.00;;;;;;5084554;28;20084;-60
2023/01/12 03:12:29;;;;;;;17.77;5.68;;;9.70;97.10;;;;;;5084324;28;20028;-60
2023/01/12 03:14:55;;;;;;;18.95;5.65;;;9.70;97.10;;;;;;5067930;28;20507;-60
2023/01/12 03:18:00;;;;;;;15.52;4.93;;;9.60;97.10;;;;;;5067484;28;20123;-59
2023/01/12 03:20:32;;;;;;;13.32;5.05;;;9.60;97.10;;;;;;5073264;28;20051;-60
2023/01/12 03:23:01;;;;;;;12.50;4.63;;;9.60;97.00;;;;;;5068118;28;20037;-60
2023/01/12 03:25:26;;;;;;;18.75;4.97;;;9.60;97.00;;;;;;5067724;28;20183;-59
2023/01/12 03:27:53;;;;;;;19.80;5.28;;;9.50;97.00;;;;;;5067824;28;20115;-59
2023/01/12 03:30:50;;;;;;;20.10;5.15;;;9.60;97.10;;;;;;5084109;28;20067;-59
2023/01/12 03:33:16;;;;;;;16.63;5.18;;;9.60;97.00;;;;;;5084367;28;20024;-59
2023/01/12 03:36:04;;;;;;;10.38;4.25;;;9.60;97.10;;;;;;5084147;28;20033;-59
2023/01/12 03:38:49;;;;;;;12.77;4.25;;;9.50;97.10;;;;;;5083998;28;20029;-59
2023/01/12 03:41:38;;;;;;;;;;;9.50;97.10;;;;;;5068638;28;20041;-59
2023/01/12 03:44:06;;;;;;;16.25;4.80;;;9.50;97.00;;;;;;5082029;28;19912;-59
2023/01/12 03:46:40;;;;;;;14.40;4.63;;;9.50;97.00;;;;;;5067192;28;20052;-59
2023/01/12 03:49:28;;;;;;;18.40;4.93;;;9.50;97.00;;;;;;5051016;28;20020;-59
2023/01/12 03:51:54;;;;;;;15.90;4.88;;;9.50;97.10;;;;;;5051591;28;20036;-59
2023/01/12 03:54:19;;;;;;;13.35;4.68;;;9.50;97.00;;;;;;5083697;28;20040;-60
2023/01/12 03:56:45;;;;;;;17.58;4.60;;;9.50;97.00;;;;;;5066949;28;20048;-59
2023/01/12 03:59:10;;;;;;;12.05;4.18;;;9.50;97.00;;;;;;5083723;28;20059;-60
2023/01/12 04:01:36;;;;;;;12.73;4.15;;;9.50;97.00;;;;;;5083695;28;20094;-59
2023/01/12 04:04:02;;;;;;;13.50;4.13;;;9.50;97.10;;;;;;5083777;28;20081;-59
2023/01/12 04:06:27;;;;;;;9.93;4.75;;;9.50;97.00;;;;;;5085223;28;20103;-60
2023/01/12 04:08:53;;;;;;;13.32;4.30;;;9.40;96.90;;;;;;5083522;28;20147;-60
2023/01/12 04:14:02;;;;;;;15.30;4.53;;;9.40;96.90;;;;;;5084990;28;20039;-59
2023/01/12 04:16:28;;;;;;;20.70;4.57;;;9.40;97.00;;;;;;5084902;28;20431;-59
2023/01/12 04:18:53;;;;;;;10.40;4.07;;;9.40;97.00;;;;;;5066876;28;20052;-60
2023/01/12 04:24:03;;;;;;;14.43;4.15;;;9.40;96.90;;;;;;5083694;28;20037;-59
2023/01/12 04:26:29;;;;;;;12.75;3.83;;;9.50;96.70;;;;;;5083463;28;20029;-60
2023/01/12 04:28:54;;;;;;;10.23;3.65;;;9.40;96.60;;;;;;5084737;28;20385;-59
2023/01/12 04:31:20;;;;;;;11.45;3.60;;;9.40;96.60;;;;;;5083438;28;20370;-60
2023/01/12 04:33:45;;;;;;;9.52;3.45;;;9.40;96.50;;;;;;5084719;28;20053;-60
2023/01/12 04:36:11;;;;;;;12.35;3.50;;;9.40;96.40;;;;;;5066662;28;20391;-59
2023/01/12 04:38:37;;;;;;;10.90;3.53;;;9.40;96.40;;;;;;5084877;28;20081;-59
2023/01/12 04:41:03;;;;;;;11.80;3.72;;;9.40;96.50;;;;;;5083064;28;20063;-59
2023/01/12 04:43:29;;;;;;;15.50;3.80;;;9.40;96.50;;;;;;5084412;28;20036;-59
2023/01/12 04:45:55;;;;;;;8.63;3.28;;;9.40;96.50;;;;;;5084428;28;20516;-59
2023/01/12 04:48:20;;;;;;;12.55;3.50;;;9.30;96.70;;;;;;5084654;28;20372;-59
2023/01/12 04:50:48;;;;;;;12.68;3.50;;;9.30;96.30;;;;;;5083453;28;20028;-59
2023/01/12 04:53:14;;;;;;;9.82;3.35;;;9.30;96.30;;;;;;5066726;28;20074;-59
2023/01/12 04:55:40;;;;;;;7.82;3.25;;;9.30;96.30;;;;;;5083039;28;20028;-59
2023/01/12 04:58:06;;;;;;;10.52;2.92;;;9.40;96.30;;;;;;5085029;28;20033;-59
2023/01/12 05:00:31;;;;;;;7.97;3.08;;;9.30;96.20;;;;;;5087941;28;20073;-59
2023/01/12 05:02:59;;;;;;;12.23;3.30;;;9.30;96.10;;;;;;5087761;28;20025;-59
2023/01/12 05:05:25;;;;;;;8.52;3.40;;;9.30;96.10;;;;;;5087932;28;20084;-59
2023/01/12 05:10:35;;;;;;;9.25;3.47;;;9.30;96.30;;;;;;5086807;28;20086;-59
2023/01/12 05:13:00;;;;;;;9.82;3.08;;;9.30;96.30;;;;;;5069992;28;20033;-59
2023/01/12 05:15:26;;;;;;;6.57;2.50;;;9.30;96.30;;;;;;5086540;28;20254;-60
2023/01/12 05:17:53;;;;;;;7.22;2.45;;;9.30;96.30;;;;;;5086875;28;20025;-59
2023/01/12 05:20:19;;;;;;;8.57;2.70;;;9.30;96.20;;;;;;5070047;28;20032;-58
2023/01/12 05:22:47;;;;;;;12.70;2.90;;;9.30;96.10;;;;;;5071163;28;20020;-59
2023/01/12 05:25:13;;;;;;;10.98;3.08;;;9.30;96.20;;;;;;5090733;28;20270;-59
2023/01/12 05:27:38;;;;;;;10.10;3.08;;;9.30;96.20;;;;;;5087589;28;20028;-59
2023/01/12 05:30:04;;;;;;;8.85;2.65;;;9.30;96.20;;;;;;5087470;28;20112;-59
2023/01/12 05:32:30;;;;;;;12.07;2.92;;;9.30;96.20;;;;;;5087367;28;20475;-59
2023/01/12 05:34:55;;;;;;;9.23;3.40;;;9.20;96.00;;;;;;5085823;28;20028;-59
2023/01/12 05:37:21;;;;;;;10.07;3.10;;;9.20;96.10;;;;;;5086177;28;20028;-59
2023/01/12 05:39:46;;;;;;;7.75;3.10;;;9.20;96.20;;;;;;5086208;28;20033;-59
2023/01/12 05:44:56;;;;;;;14.38;3.30;;;9.20;96.30;;;;;;5085881;28;20134;-59
2023/01/12 05:47:21;;;;;;;12.18;2.72;;;9.20;96.40;;;;;;5086028;28;20037;-59
2023/01/12 05:49:47;;;;;;;8.80;2.90;;;9.20;96.30;;;;;;5086563;28;20043;-59
2023/01/12 05:52:12;;;;;;;9.82;3.00;;;9.20;96.20;;;;;;5088527;28;20044;-59
2023/01/12 05:54:38;;;;;;;6.65;2.15;;;9.20;96.30;;;;;;5085718;28;20035;-59
2023/01/12 05:57:03;;;;;;;10.48;2.72;;;9.20;96.20;;;;;;5092349;28;20039;-59
2023/01/12 05:59:29;;;;;;;7.93;2.50;;;9.20;96.30;;;;;;5077525;28;20024;-59
2023/01/12 06:01:54;;;;;;;8.80;2.85;;;9.20;96.20;;;;;;5062029;28;20493;-59
2023/01/12 06:04:20;;;;;;;7.60;2.65;;;9.20;96.20;;;;;;5120409;28;20080;-59
2023/01/12 06:06:47;;;;;;;12.40;2.90;;;9.20;96.20;;;;;;5102073;28;20044;-59
2023/01/12 06:09:13;;;;;;;9.20;2.50;;;9.10;96.20;;;;;;5079268;28;20028;-59
2023/01/12 06:14:22;;;;;;;8.30;2.90;;;9.10;96.00;;;;;;5085534;28;20031;-59
2023/01/12 06:16:47;;;;;;;14.25;2.90;;;9.10;96.00;;;;;;5085081;28;20080;-59
2023/01/12 06:19:13;;;;;;;8.75;2.75;;;9.10;95.90;;;;;;5085185;28;20028;-59
2023/01/12 06:21:39;;;;;;;17.55;2.90;;;9.10;95.90;;;;;;5084936;28;20484;-59
2023/01/12 06:24:05;;;;;;;17.63;3.38;;;9.10;95.90;;;;;;5084368;28;20040;-59
2023/01/12 06:26:30;;;;;;;20.13;3.30;;;9.10;96.00;;;;;;5085502;28;20024;-59
2023/01/12 06:28:56;;;;;;;21.20;3.63;;;9.10;96.00;;;;;;5085381;28;20020;-59
2023/01/12 06:31:21;;;;;;;21.88;3.50;;;9.10;96.00;;;;;;5084766;28;20048;-59
2023/01/12 06:33:47;;;;;;;21.80;4.97;;;9.10;95.90;;;;;;5084757;28;20032;-59
2023/01/12 06:36:12;;;;;;;17.25;3.22;;;9.10;95.90;;;;;;5086026;28;20081;-59
2023/01/12 06:38:38;;;;;;;22.42;3.90;;;9.10;95.90;;;;;;5084576;28;20024;-59
2023/01/12 06:43:55;;;;;;;28.10;4.68;;;9.10;95.70;;;;;;5074262;28;20045;-59
2023/01/12 06:46:21;;;;;;;31.00;4.82;;;9.10;95.60;;;;;;5103061;28;20032;-59
2023/01/12 06:48:47;;;;;;;23.13;4.38;;;9.10;95.60;;;;;;5100474;28;20045;-59
2023/01/12 06:51:12;;;;;;;29.80;4.88;;;9.10;95.60;;;;;;5086397;28;20444;-59
2023/01/12 06:53:38;;;;;;;26.27;5.40;;;9.10;95.60;;;;;;5086839;28;20123;-59
2023/01/12 06:56:04;;;;;;;28.02;4.25;;;9.10;95.50;;;;;;5099872;28;20032;-59
2023/01/12 06:58:29;;;;;;;30.38;4.47;;;9.10;95.40;;;;;;5089531;28;20031;-59
2023/01/12 07:01:00;;;;;;;40.22;4.35;;;9.10;95.30;;;;;;5103798;28;20036;-59
2023/01/12 07:03:25;;;;;;;35.78;4.65;;;9.10;95.30;;;;;;5100721;28;20032;-59
2023/01/12 07:05:51;;;;;;;27.63;4.38;;;9.10;95.20;;;;;;5090138;28;20038;-59
2023/01/12 07:08:18;;;;;;;28.15;3.78;;;9.10;95.10;;;;;;5096177;28;20153;-59
2023/01/12 07:10:44;;;;;;;23.45;3.45;;;9.10;94.90;;;;;;5102396;28;20039;-59
2023/01/12 07:13:09;;;;;;;22.00;4.00;;;9.10;94.80;;;;;;5087350;28;20025;-59
2023/01/12 07:15:35;;;;;;;18.23;4.07;;;9.00;94.60;;;;;;5082004;28;20043;-59
2023/01/12 07:18:00;;;;;;;23.00;3.95;;;9.10;94.70;;;;;;5086810;28;20046;-59
2023/01/12 07:20:27;;;;;;;25.33;3.28;;;9.10;94.60;;;;;;5083437;28;20078;-59
2023/01/12 07:22:54;;;;;;;26.58;4.10;;;9.10;94.50;;;;;;5115962;28;20088;-59
2023/01/12 07:25:20;;;;;;;26.63;3.92;;;9.10;94.50;;;;;;5096094;28;20084;-59
2023/01/12 07:27:52;;;;;;;19.10;3.10;;;9.10;94.50;;;;;;5100224;28;20020;-59
2023/01/12 07:30:20;;;;;;;25.50;3.83;;;9.10;94.30;;;;;;5096360;28;20044;-59
2023/01/12 07:32:45;;;;;;;21.55;3.22;;;9.10;94.50;;;;;;5084354;28;20043;-59
2023/01/12 07:35:11;;;;;;;15.02;3.80;;;9.10;94.20;;;;;;5091135;28;20043;-59
2023/01/12 07:37:36;;;;;;;26.42;3.35;;;9.10;94.10;;;;;;5096425;28;20038;-59
2023/01/12 07:40:02;;;;;;;23.10;4.53;;;9.10;94.10;;;;;;5097595;28;20038;-59
2023/01/12 07:42:28;;;;;;;15.43;2.78;;;9.10;94.00;;;;;;5098960;28;20028;-59
2023/01/12 07:44:53;;;;;;;23.23;4.20;;;9.10;93.90;;;;;;5104276;28;20032;-59
2023/01/12 07:47:19;;;;;;;23.60;3.40;;;9.10;93.90;;;;;;5089554;28;20044;-59
2023/01/12 07:49:44;;;;;;;17.77;3.35;;;9.10;93.80;;;;;;5083036;28;20024;-59
2023/01/12 07:52:11;;;;;;;15.85;2.78;;;9.10;93.70;;;;;;5093661;28;20042;-59
2023/01/12 07:54:36;;;;;;;17.35;2.42;;;9.10;93.60;;;;;;5100904;28;20043;-59
2023/01/12 07:57:02;;;;;;;15.00;3.13;;;9.10;93.50;;;;;;5100955;28;20029;-59
2023/01/12 07:59:28;;;;;;;40.65;4.68;;;9.10;93.40;;;;;;5098958;28;20111;-59
2023/01/12 08:01:54;;;;;;;33.80;4.40;;;9.10;93.50;;;;;;5099580;28;20033;-59
2023/01/12 08:04:20;;;;;;;41.00;4.32;;;9.20;93.50;;;;;;5084837;28;20032;-59
2023/01/12 08:06:46;;;;;;;17.13;3.25;;;9.20;93.30;;;;;;5092790;28;20085;-59
2023/01/12 08:09:11;;;;;;;39.88;3.88;;;9.20;93.30;;;;;;5092755;28;20512;-59
2023/01/12 08:11:37;;;;;;;28.52;4.32;;;9.20;93.30;;;;;;5097009;28;20046;-59
2023/01/12 08:14:04;;;;;;;23.45;4.10;;;9.20;93.30;;;;;;5103452;28;20040;-59
2023/01/12 08:16:39;;;;;;;47.65;6.13;;;9.20;93.30;;;;;;5097638;28;20036;-59
2023/01/12 08:19:09;;;;;;;;;;;9.20;93.20;;;;;;5083184;28;20025;-59
2023/01/12 08:21:44;;;;;;;53.03;6.82;;;9.20;93.20;;;;;;5088531;28;19919;-59
2023/01/12 08:24:11;;;;;;;111.38;8.48;;;9.20;93.20;;;;;;5091832;28;20034;-59
2023/01/12 08:26:38;;;;;;;70.88;8.23;;;9.30;93.20;;;;;;5094274;28;20072;-60
2023/01/12 08:29:10;;;;;;;97.95;9.07;;;9.30;93.10;;;;;;5070411;28;20104;-59
2023/01/12 08:31:35;;;;;;;76.57;8.93;;;9.30;93.10;;;;;;5102067;28;20101;-59
2023/01/12 08:34:01;;;;;;;111.85;11.07;;;9.30;93.00;;;;;;5087944;28;20444;-59
2023/01/12 08:36:26;;;;;;;100.13;12.95;;;9.30;93.00;;;;;;5088222;28;20111;-59
2023/01/12 08:38:52;;;;;;;97.88;10.43;;;9.40;93.00;;;;;;5086360;28;20028;-59
2023/01/12 08:41:33;;;;;;;67.38;9.13;;;9.30;92.90;;;;;;5103263;28;20043;-59
2023/01/12 08:44:02;;;;;;;70.68;7.43;;;9.40;92.90;;;;;;5103098;28;20054;-59
2023/01/12 08:46:33;;;;;;;49.30;6.97;;;9.40;92.90;;;;;;5088508;28;20414;-59
2023/01/12 08:48:58;;;;;;;36.83;5.10;;;9.40;92.70;;;;;;5094996;28;20025;-59
2023/01/12 08:51:24;;;;;;;38.55;6.32;;;9.40;92.70;;;;;;5096652;28;20051;-59
2023/01/12 08:53:50;;;;;;;60.38;7.65;;;9.40;92.60;;;;;;5089759;28;20107;-59
2023/01/12 08:56:15;;;;;;;45.92;6.57;;;9.40;92.60;;;;;;5100127;28;20062;-59
2023/01/12 08:58:42;;;;;;;40.92;6.53;;;9.40;92.50;;;;;;5096822;28;20054;-59
2023/01/12 09:01:08;;;;;;;53.42;5.90;;;9.40;92.40;;;;;;5095570;28;20509;-60
2023/01/12 09:03:35;;;;;;;60.60;7.10;;;9.40;92.30;;;;;;5091334;28;20039;-59
2023/01/12 09:06:11;;;;;;;59.88;6.72;;;9.40;92.40;;;;;;5089873;28;20033;-59
2023/01/12 09:08:37;;;;;;;74.75;9.05;;;9.40;92.30;;;;;;5088882;28;20035;-59
2023/01/12 09:11:03;;;;;;;56.05;7.93;;;9.40;92.30;;;;;;5086212;28;20040;-59
2023/01/12 09:13:29;;;;;;;44.22;7.00;;;9.50;92.30;;;;;;5102507;28;20494;-59
2023/01/12 09:15:54;;;;;;;62.42;7.43;;;9.50;92.20;;;;;;5102263;28;20120;-59
2023/01/12 09:18:20;;;;;;;66.32;8.48;;;9.50;92.20;;;;;;5089622;28;20054;-59
2023/01/12 09:20:45;;;;;;;90.75;11.25;;;9.50;92.30;;;;;;5091958;28;20116;-59
2023/01/12 09:23:11;;;;;;;70.88;7.82;;;9.40;92.20;;;;;;5104355;28;20047;-59
2023/01/12 09:25:37;;;;;;;79.63;8.50;;;9.50;92.20;;;;;;5099114;28;20043;-59
2023/01/12 09:28:02;;;;;;;61.03;8.00;;;9.50;92.20;;;;;;5087192;28;20034;-59
2023/01/12 09:30:28;;;;;;;67.85;8.55;;;9.50;92.20;;;;;;5103256;28;20027;-59
2023/01/12 09:32:54;;;;;;;70.80;8.05;;;9.60;92.20;;;;;;5094274;28;20039;-59
2023/01/12 09:35:20;;;;;;;59.85;7.20;;;9.60;92.20;;;;;;5093471;28;20047;-59
2023/01/12 09:37:46;;;;;;;79.63;7.10;;;9.60;92.10;;;;;;5101664;28;20126;-59
2023/01/12 09:40:15;;;;;;;72.53;8.05;;;9.60;92.10;;;;;;5103868;28;20137;-59
2023/01/12 09:48:17;;;;;;;57.55;6.63;;;9.60;92.10;;;;;;5085298;28;20067;-59
2023/01/12 09:51:08;;;;;;;48.15;6.82;;;9.60;92.00;;;;;;5091729;28;20085;-59
2023/01/12 09:53:35;;;;;;;42.83;5.85;;;9.60;92.00;;;;;;5105618;28;20054;-59
2023/01/12 09:56:07;;;;;;;54.60;6.20;;;9.60;91.90;;;;;;5100090;28;20047;-60
2023/01/12 09:59:10;;;;;;;46.88;7.07;;;9.60;91.90;;;;;;5102294;28;20131;-59
2023/01/12 10:01:35;;;;;;;42.03;5.82;;;9.60;91.90;;;;;;5104620;28;20059;-59
2023/01/12 10:04:01;;;;;;;63.05;6.63;;;9.70;91.90;;;;;;5099131;28;20020;-59
2023/01/12 10:06:27;;;;;;;57.42;7.03;;;9.70;91.80;;;;;;5067739;28;20032;-59
2023/01/12 10:08:55;;;;;;;35.95;6.07;;;9.70;91.80;;;;;;5084603;28;20020;-60
2023/01/12 10:11:39;;;;;;;42.28;6.22;;;9.70;91.80;;;;;;5107000;28;20036;-59
2023/01/12 10:14:20;;;;;;;57.33;7.53;;;9.70;91.80;;;;;;5089191;28;20061;-59
2023/01/12 10:17:11;;;;;;;62.20;8.57;;;9.80;91.80;;;;;;5084063;28;20049;-59
2023/01/12 10:20:01;;;;;;;62.25;7.95;;;9.80;91.70;;;;;;5092197;28;20592;-59
2023/01/12 10:22:37;;;;;;;57.92;7.07;;;9.80;91.70;;;;;;5093435;28;20040;-59
2023/01/12 10:25:14;;;;;;;53.13;6.80;;;9.80;91.60;;;;;;5098172;28;20111;-60
2023/01/12 10:27:42;;;;;;;45.38;5.30;;;9.90;91.60;;;;;;5097210;28;20020;-59
2023/01/12 10:30:15;;;;;;;56.55;6.85;;;9.80;91.80;;;;;;5091629;28;20467;-59
2023/01/12 10:32:41;;;;;;;54.70;7.30;;;9.80;91.50;;;;;;5104929;28;20032;-59
2023/01/12 10:35:12;;;;;;;53.08;6.75;;;9.80;91.50;;;;;;5100273;28;20032;-59
2023/01/12 10:37:45;;;;;;;40.67;6.90;;;9.90;91.40;;;;;;5090764;28;20024;-59
2023/01/12 10:40:31;;;;;;;54.00;7.43;;;9.90;91.40;;;;;;5094906;28;20032;-59
2023/01/12 10:43:18;;;;;;;56.50;6.80;;;9.90;91.30;;;;;;5100824;28;20040;-59
2023/01/12 10:45:44;;;;;;;68.38;7.47;;;9.90;91.20;;;;;;5082596;28;20040;-59
2023/01/12 10:48:20;;;;;;;67.35;9.00;;;9.90;91.20;;;;;;5072589;28;20020;-59
2023/01/12 10:50:54;;;;;;;;;;;9.90;91.30;;;;;;5091826;28;20489;-60
2023/01/12 10:53:20;;;;;;;68.45;8.38;;;9.90;91.30;;;;;;5087776;28;20287;-59
2023/01/12 10:55:46;;;;;;;52.78;7.13;;;10.00;91.20;;;;;;5076003;28;20043;-60
2023/01/12 10:58:20;;;;;;;74.50;9.10;;;10.00;91.40;;;;;;5095055;28;20029;-59
2023/01/12 11:00:47;;;;;;;77.78;8.70;;;10.00;91.40;;;;;;5085668;28;20028;-60
2023/01/12 11:03:30;;;;;;;55.42;7.32;;;10.10;91.40;;;;;;5085675;28;20088;-59
2023/01/12 11:05:55;;;;;;;85.13;8.23;;;10.10;91.50;;;;;;5080202;28;20031;-59
2023/01/12 11:08:22;;;;;;;55.78;7.43;;;10.10;91.50;;;;;;5080474;28;20024;-59
2023/01/12 11:10:47;;;;;;;49.55;6.70;;;10.10;91.40;;;;;;5088582;28;20024;-60
2023/01/12 11:13:31;;;;;;;51.85;7.03;;;10.10;91.30;;;;;;5072231;28;20025;-59
2023/01/12 11:16:16;;;;;;;63.45;7.68;;;10.10;91.20;;;;;;5052046;28;20037;-57
2023/01/12 11:19:08;;;;;;;65.57;8.02;;;10.30;91.20;;;;;;5095228;28;20041;-59
2023/01/12 11:21:35;;;;;;;104.18;9.07;;;10.20;91.30;;;;;;5091499;28;20032;-60
2023/01/12 11:24:15;;;;;;;68.50;8.35;;;10.20;91.30;;;;;;5090808;28;20078;-60
2023/01/12 11:27:06;;;;;;;64.53;9.02;;;10.20;91.30;;;;;;5082650;28;20020;-59
2023/01/12 11:29:39;;;;;;;52.92;6.75;;;10.20;91.30;;;;;;5096705;28;21827;-60
2023/01/12 11:32:17;;;;;;;76.45;8.30;;;10.20;91.30;;;;;;5098869;28;20082;-60
2023/01/12 11:34:53;;;;;;;67.13;9.18;;;10.30;91.40;;;;;;5097158;28;20028;-59
2023/01/12 11:37:19;;;;;;;112.30;12.57;;;10.30;91.40;;;;;;5080393;28;20207;-59
2023/01/12 11:39:46;;;;;;;88.78;10.95;;;10.30;91.50;;;;;;5090362;28;20032;-59
2023/01/12 11:45:16;;;;;;;106.30;10.95;;;10.40;91.60;;;;;;5083065;28;20098;-57
2023/01/12 11:47:51;;;;;;;97.18;10.85;;;10.40;91.50;;;;;;5089464;28;20126;-57
2023/01/12 11:50:27;;;;;;;81.72;11.48;;;10.40;91.40;;;;;;5091253;28;20058;-57
2023/01/12 11:52:54;;;;;;;91.10;11.57;;;10.50;91.50;;;;;;5073780;28;20020;-57
2023/01/12 11:55:44;;;;;;;108.40;11.50;;;10.50;91.50;;;;;;5084956;28;20066;-56
2023/01/12 11:58:23;;;;;;;94.65;10.82;;;10.50;91.50;;;;;;5092742;28;20023;-57
2023/01/12 12:01:04;;;;;;;92.25;10.07;;;10.50;91.50;;;;;;5096400;28;20032;-57
2023/01/12 12:03:43;;;;;;;97.38;10.57;;;10.50;91.40;;;;;;5096679;28;20056;-57
2023/01/12 12:07:04;;;;;;;108.88;12.52;;;10.50;91.30;;;;;;5072774;28;20024;-57
2023/01/12 12:09:38;;;;;;;100.88;11.40;;;10.50;91.40;;;;;;5054503;28;20089;-56
2023/01/12 12:12:27;;;;;;;80.95;10.10;;;10.50;91.50;;;;;;5053984;28;20038;-57
2023/01/12 12:15:18;;;;;;;76.68;9.65;;;10.50;91.40;;;;;;5077050;28;20028;-56
2023/01/12 12:18:16;;;;;;;96.22;10.13;;;10.60;91.30;;;;;;5106885;28;20039;-57
2023/01/12 12:21:03;;;;;;;75.22;10.00;;;10.60;91.30;;;;;;5084659;28;20129;-57
2023/01/12 12:23:42;;;;;;;95.70;9.52;;;10.60;91.30;;;;;;5092326;28;20051;-57
2023/01/12 12:26:14;;;;;;;81.68;10.10;;;10.60;91.30;;;;;;5106019;28;20117;-57
2023/01/12 12:29:05;;;;;;;59.85;9.98;;;10.60;91.20;;;;;;5096311;28;20024;-57
2023/01/12 12:32:07;;;;;;;88.63;8.65;;;10.50;91.20;;;;;;5087465;28;20048;-57
2023/01/12 12:34:50;;;;;;;77.22;9.52;;;10.60;91.20;;;;;;5088611;28;20029;-57
2023/01/12 12:37:24;;;;;;;97.93;9.80;;;10.70;91.10;;;;;;5100419;28;20044;-57
2023/01/12 12:40:19;;;;;;;83.47;10.82;;;10.70;91.20;;;;;;5100274;28;20039;-57
2023/01/12 12:46:10;;;;;;;65.05;8.05;;;10.70;91.10;;;;;;5093752;28;20040;-57
2023/01/12 12:48:48;;;;;;;72.15;8.55;;;10.70;91.10;;;;;;5090974;28;20353;-57
2023/01/12 12:51:14;;;;;;;73.10;7.95;;;10.70;91.00;;;;;;5088082;28;20539;-57
2023/01/12 12:53:42;;;;;;;73.70;8.32;;;10.70;91.00;;;;;;5096663;28;20028;-57
2023/01/12 12:56:09;;;;;;;61.45;8.18;;;10.80;91.00;;;;;;5101666;28;20040;-57
2023/01/12 12:58:55;;;;;;;59.70;7.57;;;10.80;91.00;;;;;;5104278;28;20024;-57
2023/01/12 13:01:24;;;;;;;63.42;7.05;;;10.80;90.90;;;;;;5090449;28;20157;-57
2023/01/12 13:03:53;;;;;;;55.53;6.65;;;10.80;90.80;;;;;;5097092;28;20028;-57
2023/01/12 13:06:36;;;;;;;43.80;6.18;;;10.80;90.80;;;;;;5099509;28;20028;-57
2023/01/12 13:09:04;;;;;;;47.92;6.35;;;10.80;90.80;;;;;;5099696;28;20472;-57
2023/01/12 13:11:55;;;;;;;51.08;6.03;;;10.80;90.80;;;;;;5097282;28;20420;-57
2023/01/12 13:14:25;;;;;;;58.33;6.63;;;10.80;90.80;;;;;;5088024;28;20032;-57
2023/01/12 13:16:51;;;;;;;37.00;5.32;;;10.80;90.80;;;;;;5088897;28;20020;-56
2023/01/12 13:19:37;;;;;;;28.23;4.88;;;10.90;90.80;;;;;;5081885;28;20039;-56
2023/01/12 13:22:45;;;;;;;34.83;5.28;;;10.80;90.80;;;;;;5082719;28;20101;-57
2023/01/12 13:25:21;;;;;;;54.63;6.45;;;10.90;90.80;;;;;;5087387;28;20106;-57
2023/01/12 13:27:58;;;;;;;48.95;6.18;;;10.90;90.90;;;;;;5094353;28;20054;-56
2023/01/12 13:30:27;;;;;;;39.40;5.28;;;10.90;91.10;;;;;;5103039;28;20040;-57
2023/01/12 13:33:11;;;;;;;48.83;5.80;;;11.00;91.00;;;;;;5090182;28;20354;-57
2023/01/12 13:35:45;;;;;;;36.40;4.97;;;11.00;90.90;;;;;;5087185;28;20480;-57
2023/01/12 13:38:42;;;;;;;57.25;5.75;;;11.00;90.90;;;;;;5090286;28;20032;-56
2023/01/12 13:43:13;;;;;;;55.40;6.88;;;11.00;91.00;;;;;;5086915;28;20040;-57
2023/01/12 13:44:02;;;;;;;75.97;6.85;;;11.00;91.00;;;;;;5085798;28;20028;-56